Time;durP1;ratioP1;P1;durP2;ratioP2;P2;SDS_P1;SDS_P2;PMS_P1;PMS_P2;Temp;Humidity;BMP_temperature;BMP_pressure;BME280_temperature;BME280_humidity;BME280_pressure;Samples;Min_cycle;Max_cycle;Signal;HPM_P1;HPM_P2
2024/03/17 00:00:40;;;;;;;18.75;8.30;;;;;;;13.68;83.88;101619.56;5060668;28;20037;-58
2024/03/17 00:03:08;;;;;;;17.05;8.02;;;;;;;13.71;83.34;101629.19;5082986;28;20052;-57
2024/03/17 00:05:38;;;;;;;21.42;9.00;;;;;;;13.50;84.51;101610.28;5075128;28;20604;-59
2024/03/17 00:08:04;;;;;;;16.98;8.75;;;;;;;13.42;85.00;101610.19;5070992;28;20051;-57
2024/03/17 00:10:34;;;;;;;21.13;9.07;;;;;;;13.51;85.12;101611.09;5080935;28;20063;-57
2024/03/17 00:13:01;;;;;;;21.30;8.63;;;;;;;13.55;84.83;101606.56;5092025;28;20056;-59
2024/03/17 00:15:28;;;;;;;20.23;7.75;;;;;;;13.56;84.35;101614.56;5081735;28;20044;-59
2024/03/17 00:17:54;;;;;;;15.70;7.18;;;;;;;13.51;85.09;101614.66;5069002;28;20059;-59
2024/03/17 00:20:21;;;;;;;16.50;7.55;;;;;;;13.52;84.64;101604.44;5081808;28;20480;-63
2024/03/17 00:22:49;;;;;;;15.90;7.25;;;;;;;13.52;85.24;101609.97;5052012;28;20056;-58
2024/03/17 00:25:15;;;;;;;15.98;7.07;;;;;;;13.65;84.74;101603.56;5068396;28;20048;-58
2024/03/17 00:27:44;;;;;;;17.30;7.35;;;;;;;13.40;85.35;101604.97;5041334;28;20060;-58
2024/03/17 00:30:15;;;;;;;18.10;6.57;;;;;;;13.38;86.07;101604.47;5072499;28;20047;-58
2024/03/17 00:32:42;;;;;;;17.45;6.90;;;;;;;13.45;85.84;101599.31;5070047;28;20059;-57
2024/03/17 00:35:09;;;;;;;18.35;6.57;;;;;;;13.39;85.22;101595.03;5088646;28;20051;-58
2024/03/17 00:37:36;;;;;;;16.50;6.78;;;;;;;13.47;85.60;101599.84;5054385;28;20055;-57
2024/03/17 00:40:03;;;;;;;16.27;6.85;;;;;;;13.34;86.05;101589.59;5069916;28;20056;-56
2024/03/17 00:42:29;;;;;;;15.93;6.25;;;;;;;13.44;86.04;101600.44;5087305;28;20067;-58
2024/03/17 00:44:56;;;;;;;13.30;6.13;;;;;;;13.37;86.37;101588.97;5070972;28;20064;-56
2024/03/17 00:47:23;;;;;;;17.08;6.60;;;;;;;13.37;86.26;101591.75;5088528;28;20051;-59
2024/03/17 00:49:50;;;;;;;14.07;6.13;;;;;;;13.24;87.25;101594.53;5053356;28;20069;-57
2024/03/17 00:52:17;;;;;;;16.85;5.85;;;;;;;13.31;87.09;101593.00;5053651;28;20055;-60
2024/03/17 00:54:47;;;;;;;16.52;6.55;;;;;;;13.38;86.86;101590.63;5051519;28;20053;-60
2024/03/17 00:57:14;;;;;;;15.10;6.25;;;;;;;13.45;86.51;101581.91;5083785;28;20048;-57
2024/03/17 00:59:42;;;;;;;13.18;6.10;;;;;;;13.23;87.27;101592.91;5071462;28;20763;-59
2024/03/17 01:02:08;;;;;;;14.65;6.18;;;;;;;13.32;87.34;101593.78;5071715;28;20505;-58
2024/03/17 01:04:34;;;;;;;17.77;6.63;;;;;;;13.36;87.45;101594.81;5069751;28;20056;-57
2024/03/17 01:07:01;;;;;;;16.77;6.68;;;;;;;13.40;86.74;101598.63;5088220;28;20499;-57
2024/03/17 01:09:27;;;;;;;18.30;5.82;;;;;;;13.45;87.46;101593.78;5088115;28;20044;-57
2024/03/17 01:11:53;;;;;;;15.57;5.90;;;;;;;13.16;87.70;101585.00;5071151;28;20059;-59
2024/03/17 01:14:20;;;;;;;14.23;5.78;;;;;;;13.37;87.31;101585.41;5088073;28;20055;-58
2024/03/17 01:16:46;;;;;;;13.77;5.88;;;;;;;13.38;86.66;101576.78;5078009;28;20071;-56
2024/03/17 01:19:13;;;;;;;12.35;5.50;;;;;;;13.18;87.12;101574.47;5071800;28;20045;-59
2024/03/17 01:21:39;;;;;;;14.98;5.75;;;;;;;13.07;88.24;101570.31;5067703;28;20075;-60
2024/03/17 01:24:06;;;;;;;15.80;6.40;;;;;;;13.05;89.45;101572.56;5067414;28;20049;-60
2024/03/17 01:26:32;;;;;;;16.13;6.13;;;;;;;13.25;87.92;101571.28;5072613;28;20606;-58
2024/03/17 01:28:58;;;;;;;15.73;6.57;;;;;;;13.11;87.80;101564.97;5063104;28;20063;-59
2024/03/17 01:31:25;;;;;;;15.35;5.85;;;;;;;13.11;87.78;101568.53;5068741;28;20047;-56
2024/03/17 01:33:51;;;;;;;18.60;7.03;;;;;;;13.12;88.29;101563.81;5050868;28;20056;-56
2024/03/17 01:36:18;;;;;;;16.80;6.38;;;;;;;13.34;87.57;101561.09;5086940;28;20055;-56
2024/03/17 01:38:44;;;;;;;16.38;6.57;;;;;;;13.50;86.22;101557.69;5077815;28;20045;-57
2024/03/17 01:41:10;;;;;;;15.63;6.65;;;;;;;13.27;86.42;101553.25;5061395;28;20083;-56
2024/03/17 01:43:37;;;;;;;17.45;6.97;;;;;;;13.25;86.76;101547.19;5081018;28;20055;-60
2024/03/17 01:46:03;;;;;;;15.95;6.65;;;;;;;13.19;86.60;101542.09;5087843;28;20051;-58
2024/03/17 01:48:30;;;;;;;17.50;7.28;;;;;;;13.22;87.20;101544.22;5053827;28;20064;-60
2024/03/17 01:50:57;;;;;;;13.45;6.38;;;;;;;13.12;87.53;101544.47;5079398;28;20044;-58
2024/03/17 01:53:25;;;;;;;13.57;6.47;;;;;;;13.07;88.22;101544.56;5066978;28;20087;-60
2024/03/17 01:55:53;;;;;;;16.38;7.00;;;;;;;13.12;87.58;101550.81;5050872;28;20415;-61
2024/03/17 01:58:20;;;;;;;14.70;6.93;;;;;;;13.22;87.11;101542.28;5068143;28;20089;-61
2024/03/17 02:00:46;;;;;;;17.58;6.93;;;;;;;13.24;86.78;101534.50;5069939;28;20044;-62
2024/03/17 02:03:13;;;;;;;17.40;6.90;;;;;;;13.33;86.76;101537.34;5064554;28;20059;-62
2024/03/17 02:05:43;;;;;;;12.90;6.50;;;;;;;13.48;85.80;101537.81;5085303;28;20060;-62
2024/03/17 02:08:10;;;;;;;20.50;6.78;;;;;;;13.39;85.85;101533.31;5071922;28;20063;-61
2024/03/17 02:10:39;;;;;;;14.50;6.40;;;;;;;13.19;86.31;101540.16;5087249;28;20044;-62
2024/03/17 02:13:05;;;;;;;13.88;6.28;;;;;;;13.08;87.17;101538.72;5087467;28;20058;-62
2024/03/17 02:15:32;;;;;;;14.63;5.65;;;;;;;13.14;87.34;101534.75;5061215;28;20067;-61
2024/03/17 02:17:59;;;;;;;13.82;6.35;;;;;;;12.84;88.20;101526.22;5050045;28;20059;-61
2024/03/17 02:20:55;;;;;;;12.63;6.05;;;;;;;13.01;88.18;101524.47;5066399;28;20435;-62
2024/03/17 02:23:12;;;;;;;15.30;6.35;;;;;;;13.07;87.26;101528.81;5054026;28;20059;-60
2024/03/17 02:25:39;;;;;;;14.02;5.93;;;;;;;13.01;87.11;101521.72;5066380;28;20052;-61
2024/03/17 02:28:05;;;;;;;12.65;6.25;;;;;;;12.92;87.65;101522.75;5077510;28;20059;-62
2024/03/17 02:30:31;;;;;;;12.05;5.75;;;;;;;12.90;88.32;101517.50;5081707;28;20044;-61
2024/03/17 02:32:58;;;;;;;17.60;6.03;;;;;;;13.03;87.33;101521.44;5065949;28;20048;-60
2024/03/17 02:35:25;;;;;;;15.48;5.88;;;;;;;13.05;87.44;101516.41;5066222;28;20047;-61
2024/03/17 02:37:51;;;;;;;13.20;5.78;;;;;;;13.07;87.28;101517.75;5065811;28;20057;-62
2024/03/17 02:40:18;;;;;;;12.18;5.50;;;;;;;13.20;86.87;101513.28;5082344;28;20048;-62
2024/03/17 02:42:45;;;;;;;16.27;5.78;;;;;;;13.25;86.60;101500.16;5067188;28;20052;-60
2024/03/17 02:45:12;;;;;;;14.57;5.80;;;;;;;13.26;86.29;101499.03;5069550;28;20056;-62
2024/03/17 02:47:39;;;;;;;13.68;5.50;;;;;;;13.27;86.06;101494.31;5084196;28;20438;-61
2024/03/17 02:50:07;;;;;;;13.88;5.50;;;;;;;13.20;86.35;101485.63;5099377;28;20047;-61
2024/03/17 02:52:33;;;;;;;16.42;6.50;;;;;;;13.29;86.58;101475.44;5069506;28;20051;-62
2024/03/17 02:55:00;;;;;;;15.07;6.38;;;;;;;13.10;86.54;101466.50;5066248;28;20062;-60
2024/03/17 02:57:30;;;;;;;20.23;6.55;;;;;;;12.82;87.80;101460.19;5085709;28;20043;-62
2024/03/17 02:59:57;;;;;;;15.07;6.50;;;;;;;12.95;88.16;101451.06;5084861;28;20079;-62
2024/03/17 03:02:23;;;;;;;18.35;6.75;;;;;;;12.85;87.47;101461.53;5085866;28;20051;-60
2024/03/17 03:04:50;;;;;;;17.60;6.90;;;;;;;12.68;88.58;101473.22;5090322;28;20075;-62
2024/03/17 03:07:17;;;;;;;16.88;7.00;;;;;;;12.55;89.31;101474.06;5067356;28;20495;-61
2024/03/17 03:09:44;;;;;;;18.75;7.10;;;;;;;12.29;92.27;101472.94;5067742;28;20044;-61
2024/03/17 03:12:10;;;;;;;17.88;7.35;;;;;;;12.32;92.40;101461.28;5084984;28;20060;-62
2024/03/17 03:14:37;;;;;;;18.75;6.70;;;;;;;13.11;90.31;101457.09;5084557;28;20558;-61
2024/03/17 03:17:03;;;;;;;18.55;6.57;;;;;;;12.84;88.24;101443.28;5056732;28;20052;-61
2024/03/17 03:19:32;;;;;;;14.02;6.97;;;;;;;12.41;90.51;101451.16;5050035;28;20060;-61
2024/03/17 03:21:59;;;;;;;14.20;6.82;;;;;;;12.54;90.59;101457.75;5068909;28;20515;-61
2024/03/17 03:24:25;;;;;;;17.40;7.13;;;;;;;12.48;90.86;101460.63;5082859;28;20047;-60
2024/03/17 03:26:51;;;;;;;12.05;6.35;;;;;;;12.60;90.62;101465.66;5066774;28;20053;-61
2024/03/17 03:29:17;;;;;;;16.92;6.70;;;;;;;12.73;90.35;101445.47;5048803;28;20060;-61
2024/03/17 03:31:44;;;;;;;14.48;6.30;;;;;;;12.80;89.88;101437.56;5065830;28;20052;-60
2024/03/17 03:34:10;;;;;;;15.30;6.25;;;;;;;12.66;91.82;101422.16;5065578;28;20052;-61
2024/03/17 03:36:38;;;;;;;14.23;5.78;;;;;;;12.70;90.81;101423.16;5080815;28;20055;-61
2024/03/17 03:39:05;;;;;;;12.00;6.07;;;;;;;12.67;91.42;101456.94;5069079;28;20048;-61
2024/03/17 03:41:32;;;;;;;13.40;6.13;;;;;;;12.71;91.80;101469.03;5085691;28;20075;-60
2024/03/17 03:43:59;;;;;;;15.02;6.65;;;;;;;12.75;91.21;101479.16;5066762;28;20062;-62
2024/03/17 03:46:26;;;;;;;19.27;5.90;;;;;;;12.77;90.88;101485.19;5053003;28;20988;-61
2024/03/17 03:48:52;;;;;;;14.20;5.88;;;;;;;12.63;92.19;101483.56;5075315;28;20063;-61
2024/03/17 03:51:19;;;;;;;15.50;6.40;;;;;;;12.72;91.40;101479.78;5054461;28;20052;-61
2024/03/17 03:53:45;;;;;;;13.57;5.82;;;;;;;12.75;92.08;101472.78;5089510;28;20052;-61
2024/03/17 03:56:11;;;;;;;18.00;6.55;;;;;;;12.73;91.87;101478.63;5090132;28;20052;-61
2024/03/17 03:58:40;;;;;;;11.93;5.43;;;;;;;12.80;92.34;101473.50;5052616;28;20051;-61
2024/03/17 04:01:07;;;;;;;12.95;5.68;;;;;;;12.85;92.48;101475.34;5081582;28;20155;-61
2024/03/17 04:03:34;;;;;;;13.32;6.20;;;;;;;12.87;92.73;101478.59;5072487;28;20482;-61
2024/03/17 04:06:05;;;;;;;14.45;6.35;;;;;;;12.88;92.82;101464.50;5070120;28;20067;-64
2024/03/17 04:08:35;;;;;;;16.00;5.28;;;;;;;13.03;92.33;101466.94;5055797;28;20086;-61
2024/03/17 04:11:02;;;;;;;;;;;;;;;12.97;91.81;101456.28;5075822;28;20060;-62
2024/03/17 04:13:33;;;;;;;13.13;5.57;;;;;;;12.94;92.18;101460.47;5056543;28;19928;-62
2024/03/17 04:16:01;;;;;;;14.00;5.28;;;;;;;12.94;92.38;101468.75;5052438;28;20061;-61
2024/03/17 04:18:30;;;;;;;13.98;5.30;;;;;;;12.98;92.29;101469.78;5069272;28;20048;-62
2024/03/17 04:21:02;;;;;;;14.00;5.60;;;;;;;13.06;92.52;101465.47;5084620;28;20044;-61
2024/03/17 04:23:29;;;;;;;12.18;5.65;;;;;;;13.06;92.35;101463.53;5088369;28;20060;-61
2024/03/17 04:25:55;;;;;;;18.25;5.78;;;;;;;12.96;92.91;101460.97;5088961;28;20052;-60
2024/03/17 04:28:21;;;;;;;15.05;5.65;;;;;;;13.03;93.05;101463.34;5077047;28;20115;-63
2024/03/17 04:30:48;;;;;;;12.63;5.03;;;;;;;13.13;92.46;101463.09;5067979;28;20502;-61
2024/03/17 04:33:14;;;;;;;15.40;5.00;;;;;;;13.10;92.18;101466.50;5069399;28;20060;-61
2024/03/17 04:35:41;;;;;;;13.93;5.70;;;;;;;13.08;92.76;101463.22;5070308;28;20061;-61
2024/03/17 04:38:11;;;;;;;14.65;5.43;;;;;;;12.99;93.14;101456.78;5051387;28;20071;-62
2024/03/17 04:40:41;;;;;;;13.88;5.90;;;;;;;13.18;92.54;101463.00;5068302;28;20048;-61
2024/03/17 04:43:08;;;;;;;19.73;5.82;;;;;;;13.19;91.72;101465.47;5086346;28;20085;-60
2024/03/17 04:45:35;;;;;;;17.15;6.20;;;;;;;13.39;91.34;101456.66;5067534;28;20052;-62
2024/03/17 04:48:01;;;;;;;13.18;5.43;;;;;;;13.35;91.38;101452.06;5068503;28;20060;-61
2024/03/17 04:50:31;;;;;;;14.55;5.55;;;;;;;13.23;92.14;101460.13;5086939;28;20040;-60
2024/03/17 04:53:01;;;;;;;12.68;5.43;;;;;;;13.36;91.89;101459.22;5073515;28;20056;-60
2024/03/17 04:55:28;;;;;;;13.40;5.73;;;;;;;13.23;93.02;101452.63;5070573;28;20044;-61
2024/03/17 04:57:54;;;;;;;15.30;5.50;;;;;;;13.05;93.84;101453.63;5068159;28;20072;-62
2024/03/17 05:00:21;;;;;;;11.20;5.28;;;;;;;13.12;94.60;101451.25;5067392;28;20048;-61
2024/03/17 05:02:48;;;;;;;16.50;5.95;;;;;;;13.36;94.00;101450.94;5050672;28;20044;-61
2024/03/17 05:05:14;;;;;;;15.32;5.95;;;;;;;13.14;94.34;101439.84;5075082;28;20052;-60
2024/03/17 05:07:40;;;;;;;15.45;5.32;;;;;;;13.15;94.40;101447.00;5088183;28;20066;-61
2024/03/17 05:10:07;;;;;;;11.63;4.95;;;;;;;13.24;94.18;101439.59;5067821;28;20047;-61
2024/03/17 05:12:33;;;;;;;15.77;5.50;;;;;;;13.17;94.08;101440.06;5088437;28;20052;-61
2024/03/17 05:15:00;;;;;;;16.83;5.53;;;;;;;13.02;95.00;101434.88;5082505;28;20052;-61
2024/03/17 05:17:26;;;;;;;13.00;5.47;;;;;;;12.94;96.14;101440.28;5085578;28;20063;-62
2024/03/17 05:19:52;;;;;;;11.70;5.40;;;;;;;12.93;95.70;101439.50;5078876;28;20471;-62
2024/03/17 05:22:19;;;;;;;11.50;4.57;;;;;;;13.05;96.06;101437.03;5068053;28;20053;-59
2024/03/17 05:24:45;;;;;;;14.48;5.45;;;;;;;12.94;95.90;101430.06;5055887;28;20060;-59
2024/03/17 05:27:11;;;;;;;15.02;5.50;;;;;;;12.64;98.37;101435.47;5068036;28;20056;-60
2024/03/17 05:29:38;;;;;;;16.13;5.60;;;;;;;12.69;98.55;101429.81;5067329;28;20052;-60
2024/03/17 05:32:05;;;;;;;20.33;6.53;;;;;;;12.70;98.83;101429.50;5038265;28;20052;-59
2024/03/17 05:34:32;;;;;;;19.85;8.73;;;;;;;12.82;98.89;101427.03;5068226;28;20051;-61
2024/03/17 05:36:58;;;;;;;19.25;8.60;;;;;;;12.81;98.30;101428.16;5050663;28;20060;-61
2024/03/17 05:39:25;;;;;;;22.35;11.52;;;;;;;13.04;96.91;101421.53;5067593;28;20052;-60
2024/03/17 05:41:51;;;;;;;21.95;11.55;;;;;;;12.88;97.01;101425.78;5073426;28;20056;-62
2024/03/17 05:44:18;;;;;;;21.42;11.75;;;;;;;12.95;97.41;101436.41;5074865;28;20124;-60
2024/03/17 05:46:44;;;;;;;25.08;12.98;;;;;;;13.00;96.65;101431.59;5066652;28;20052;-60
2024/03/17 05:49:11;;;;;;;28.20;13.07;;;;;;;12.99;97.27;101429.94;5067426;28;20056;-61
2024/03/17 05:51:37;;;;;;;31.38;14.85;;;;;;;12.90;97.88;101436.53;5066632;28;20055;-61
2024/03/17 05:54:03;;;;;;;27.55;14.35;;;;;;;12.95;98.46;101433.66;5085659;28;20521;-61
2024/03/17 05:56:30;;;;;;;23.92;11.77;;;;;;;12.66;99.82;101434.00;5084806;28;20055;-65
2024/03/17 05:58:56;;;;;;;26.80;12.05;;;;;;;12.93;99.59;101433.13;5087626;28;20043;-62
2024/03/17 06:01:22;;;;;;;20.45;9.00;;;;;;;12.80;99.22;101434.81;5086490;28;20062;-59
2024/03/17 06:03:49;;;;;;;16.20;8.05;;;;;;;12.76;100.00;101428.25;5086924;28;20055;-61
2024/03/17 06:06:15;;;;;;;17.45;6.57;;;;;;;12.68;100.00;101431.75;5071921;28;20067;-60
2024/03/17 06:08:41;;;;;;;18.52;7.10;;;;;;;12.54;100.00;101435.66;5066628;28;20060;-60
2024/03/17 06:11:08;;;;;;;15.02;6.03;;;;;;;12.60;100.00;101438.03;5066660;28;20048;-62
2024/03/17 06:13:34;;;;;;;19.50;6.30;;;;;;;12.43;100.00;101429.53;5079784;28;20056;-61
2024/03/17 06:16:05;;;;;;;13.68;5.65;;;;;;;12.69;100.00;101427.06;5070502;28;20044;-59
2024/03/17 06:18:32;;;;;;;18.33;5.57;;;;;;;12.81;100.00;101428.16;5066176;28;20065;-61
2024/03/17 06:20:58;;;;;;;17.98;4.80;;;;;;;12.61;100.00;101436.06;5066332;28;20052;-60
2024/03/17 06:23:26;;;;;;;14.18;4.72;;;;;;;12.70;100.00;101429.50;5050216;28;20060;-60
2024/03/17 06:25:55;;;;;;;11.50;4.85;;;;;;;12.77;100.00;101427.13;5086479;28;20078;-61
2024/03/17 06:28:22;;;;;;;16.58;5.13;;;;;;;12.80;100.00;101429.28;5086672;28;20052;-61
2024/03/17 06:30:59;;;;;;;14.40;4.95;;;;;;;12.74;100.00;101425.00;5086435;28;20055;-61
2024/03/17 06:33:26;;;;;;;14.20;5.05;;;;;;;12.38;100.00;101436.00;5080765;28;20056;-60
2024/03/17 06:35:53;;;;;;;15.73;5.43;;;;;;;12.59;100.00;101435.56;5082175;28;20051;-60
2024/03/17 06:38:19;;;;;;;16.58;5.60;;;;;;;12.64;100.00;101430.72;5071097;28;20411;-61
2024/03/17 06:40:50;;;;;;;14.68;5.18;;;;;;;12.52;100.00;101433.22;5070292;28;20047;-60
2024/03/17 06:43:16;;;;;;;17.95;5.43;;;;;;;12.48;100.00;101429.44;5062774;28;20064;-60
2024/03/17 06:45:43;;;;;;;15.82;5.45;;;;;;;12.58;100.00;101431.16;5065459;28;20080;-59
2024/03/17 06:48:10;;;;;;;19.63;5.70;;;;;;;12.55;100.00;101427.09;5066729;28;20055;-60
2024/03/17 06:50:40;;;;;;;12.27;5.70;;;;;;;12.43;100.00;101435.06;5070675;28;20055;-63
2024/03/17 06:53:08;;;;;;;14.55;6.03;;;;;;;12.57;100.00;101429.53;5077877;28;20059;-61
2024/03/17 06:55:34;;;;;;;16.15;6.00;;;;;;;12.35;100.00;101435.78;5080165;28;20060;-61
2024/03/17 06:58:01;;;;;;;14.48;6.10;;;;;;;12.39;100.00;101434.06;5066755;28;20055;-62
2024/03/17 07:00:27;;;;;;;17.13;6.10;;;;;;;12.64;100.00;101430.72;5066000;28;20048;-60
2024/03/17 07:02:54;;;;;;;14.43;5.95;;;;;;;12.62;100.00;101429.41;5071252;28;20063;-61
2024/03/17 07:05:20;;;;;;;16.50;5.68;;;;;;;12.69;100.00;101430.66;5080765;28;20056;-57
2024/03/17 07:07:46;;;;;;;13.35;5.78;;;;;;;12.49;100.00;101431.06;5077844;28;20404;-59
2024/03/17 07:10:13;;;;;;;15.90;6.00;;;;;;;12.54;100.00;101430.97;5073920;28;20059;-57
2024/03/17 07:12:40;;;;;;;16.60;6.47;;;;;;;12.40;100.00;101427.38;5081986;28;20052;-58
2024/03/17 07:15:08;;;;;;;16.33;7.30;;;;;;;12.51;100.00;101434.34;5086458;28;20052;-60
2024/03/17 07:17:34;;;;;;;13.50;5.72;;;;;;;12.58;100.00;101426.47;5081543;28;20051;-58
2024/03/17 07:20:01;;;;;;;12.35;5.55;;;;;;;12.75;100.00;101421.09;5065914;28;20059;-58
2024/03/17 07:22:28;;;;;;;14.07;5.63;;;;;;;12.93;100.00;101433.97;5065310;28;20044;-59
2024/03/17 07:25:01;;;;;;;17.40;5.85;;;;;;;12.99;100.00;101432.69;5080838;28;20048;-58
2024/03/17 07:27:28;;;;;;;22.70;5.97;;;;;;;12.79;100.00;101432.34;5087849;28;20052;-57
2024/03/17 07:29:54;;;;;;;11.15;5.53;;;;;;;12.94;100.00;101430.06;5053839;28;20060;-60
2024/03/17 07:32:22;;;;;;;12.30;5.50;;;;;;;12.87;100.00;101426.06;5089360;28;20059;-58
2024/03/17 07:34:50;;;;;;;13.02;5.15;;;;;;;12.91;100.00;101430.69;5086107;28;20055;-56
2024/03/17 07:37:16;;;;;;;11.82;5.47;;;;;;;12.74;100.00;101429.69;5073527;28;20048;-57
2024/03/17 07:39:43;;;;;;;13.88;5.10;;;;;;;12.63;100.00;101431.88;5069445;28;20408;-57
2024/03/17 07:42:10;;;;;;;13.52;5.68;;;;;;;12.79;100.00;101424.06;5077733;28;20052;-61
2024/03/17 07:44:36;;;;;;;14.18;5.55;;;;;;;12.83;100.00;101428.63;5076960;28;20063;-62
2024/03/17 07:47:03;;;;;;;15.25;5.15;;;;;;;12.72;100.00;101427.25;5085006;28;20075;-61
2024/03/17 07:49:33;;;;;;;14.38;5.10;;;;;;;12.78;100.00;101425.19;5073902;28;20577;-61
2024/03/17 07:52:00;;;;;;;13.00;5.00;;;;;;;12.87;100.00;101420.53;5085765;28;20083;-61
2024/03/17 07:54:26;;;;;;;14.95;5.03;;;;;;;12.76;100.00;101428.25;5062167;28;20051;-61
2024/03/17 07:56:53;;;;;;;13.50;5.25;;;;;;;12.73;100.00;101419.75;5071602;28;20063;-62
2024/03/17 07:59:19;;;;;;;17.75;7.20;;;;;;;12.80;100.00;101420.16;5086815;28;20521;-59
2024/03/17 08:01:46;;;;;;;13.38;4.85;;;;;;;12.71;100.00;101435.84;5088834;28;20051;-62
2024/03/17 08:04:12;;;;;;;13.95;5.22;;;;;;;12.82;100.00;101423.44;5087500;28;20059;-60
2024/03/17 08:06:40;;;;;;;13.63;5.00;;;;;;;12.73;100.00;101423.34;5088402;28;20052;-60
2024/03/17 08:09:10;;;;;;;15.02;5.20;;;;;;;12.67;100.00;101421.84;5086285;28;20047;-61
2024/03/17 08:11:36;;;;;;;14.30;5.47;;;;;;;12.78;100.00;101428.75;5086993;28;20046;-61
2024/03/17 08:14:03;;;;;;;14.15;5.50;;;;;;;12.80;100.00;101417.38;5089185;28;20060;-61
2024/03/17 08:16:29;;;;;;;13.80;5.13;;;;;;;12.75;100.00;101417.50;5089075;28;20060;-62
2024/03/17 08:18:56;;;;;;;14.32;5.38;;;;;;;12.61;100.00;101428.59;5087399;28;20517;-62
2024/03/17 08:21:24;;;;;;;13.65;5.05;;;;;;;12.64;100.00;101418.88;5071885;28;20052;-61
2024/03/17 08:23:51;;;;;;;15.50;5.38;;;;;;;12.78;100.00;101428.75;5082068;28;20052;-62
2024/03/17 08:26:18;;;;;;;15.35;5.45;;;;;;;12.84;100.00;101423.94;5068802;28;20048;-61
2024/03/17 08:28:46;;;;;;;14.48;5.00;;;;;;;12.94;100.00;101419.00;5068636;28;20044;-62
2024/03/17 08:31:12;;;;;;;14.85;5.53;;;;;;;12.90;100.00;101417.97;5083723;28;20051;-62
2024/03/17 08:33:39;;;;;;;14.70;5.15;;;;;;;12.95;100.00;101408.75;5087934;28;20090;-61
2024/03/17 08:36:09;;;;;;;15.77;6.30;;;;;;;13.07;100.00;101417.34;5086011;28;20044;-61
2024/03/17 08:38:37;;;;;;;13.70;5.20;;;;;;;13.13;100.00;101410.53;5071627;28;20048;-60
2024/03/17 08:41:05;;;;;;;17.08;5.18;;;;;;;13.15;100.00;101419.34;5088691;28;20043;-62
2024/03/17 08:43:32;;;;;;;17.23;6.20;;;;;;;13.08;100.00;101413.44;5085663;28;20067;-61
2024/03/17 08:46:02;;;;;;;13.95;5.60;;;;;;;13.11;100.00;101416.41;5071148;28;20506;-60
2024/03/17 08:48:31;;;;;;;17.15;5.80;;;;;;;13.20;100.00;101410.94;5087152;28;20070;-60
2024/03/17 08:50:58;;;;;;;14.85;5.72;;;;;;;13.23;100.00;101416.66;5071883;28;20594;-62
2024/03/17 08:53:25;;;;;;;12.60;4.85;;;;;;;13.09;100.00;101412.31;5080112;28;20059;-61
2024/03/17 08:55:51;;;;;;;14.05;5.93;;;;;;;13.15;100.00;101411.06;5083735;28;20056;-60
2024/03/17 08:58:18;;;;;;;18.25;6.40;;;;;;;13.18;100.00;101410.44;5068162;28;20048;-61
2024/03/17 09:00:45;;;;;;;12.57;5.55;;;;;;;13.20;100.00;101397.09;5069577;28;20463;-61
2024/03/17 09:03:12;;;;;;;15.32;5.53;;;;;;;13.17;100.00;101406.84;5084762;28;20044;-61
2024/03/17 09:05:40;;;;;;;15.52;5.72;;;;;;;13.32;100.00;101400.09;5104753;28;20052;-62
2024/03/17 09:08:09;;;;;;;15.18;5.55;;;;;;;13.35;100.00;101391.19;5081502;28;20055;-61
2024/03/17 09:10:43;;;;;;;15.60;5.78;;;;;;;13.45;100.00;101383.47;5069974;28;20454;-61
2024/03/17 09:13:17;;;;;;;13.13;5.50;;;;;;;13.34;100.00;101386.78;5059164;28;20064;-60
2024/03/17 09:15:54;;;;;;;14.32;5.45;;;;;;;13.42;100.00;101386.03;5067810;28;20052;-60
2024/03/17 09:18:20;;;;;;;17.58;5.95;;;;;;;13.40;100.00;101396.59;5068373;28;20582;-62
2024/03/17 09:20:55;;;;;;;13.10;5.82;;;;;;;13.43;100.00;101398.72;5079365;28;20048;-61
2024/03/17 09:23:23;;;;;;;20.13;7.30;;;;;;;13.48;100.00;101395.81;5062665;28;20060;-61
2024/03/17 09:26:00;;;;;;;14.15;6.38;;;;;;;13.56;100.00;101400.63;5082842;28;20063;-58
2024/03/17 09:28:28;;;;;;;12.27;5.47;;;;;;;13.72;100.00;101392.72;5079569;28;20051;-61
2024/03/17 09:30:58;;;;;;;13.88;5.82;;;;;;;13.50;100.00;101397.16;5073448;28;20047;-59
2024/03/17 09:33:26;;;;;;;15.75;5.88;;;;;;;13.68;100.00;101402.78;5074241;28;20055;-60
2024/03/17 09:36:03;;;;;;;12.43;5.65;;;;;;;13.64;100.00;101394.31;5075849;28;20048;-60
2024/03/17 09:38:30;;;;;;;15.85;5.85;;;;;;;13.47;100.00;101392.28;5089688;28;20056;-58
2024/03/17 09:41:02;;;;;;;14.80;6.78;;;;;;;13.61;100.00;101394.13;5083462;28;20070;-59
2024/03/17 09:43:31;;;;;;;17.00;6.13;;;;;;;13.72;100.00;101396.28;5076312;28;20067;-58
2024/03/17 09:45:58;;;;;;;16.37;5.90;;;;;;;13.67;100.00;101390.09;5084785;28;20040;-58
2024/03/17 09:48:28;;;;;;;16.52;6.22;;;;;;;13.77;100.00;101395.34;5067122;28;20060;-59
2024/03/17 09:51:01;;;;;;;14.93;5.70;;;;;;;14.08;100.00;101390.59;5060425;28;20056;-59
2024/03/17 09:53:33;;;;;;;13.55;5.45;;;;;;;14.00;100.00;101396.94;5062101;28;20162;-62
2024/03/17 09:56:01;;;;;;;14.00;6.60;;;;;;;14.08;100.00;101391.44;5047269;28;20051;-60
2024/03/17 09:58:29;;;;;;;14.20;5.32;;;;;;;14.17;100.00;101386.75;5065924;28;20048;-61
2024/03/17 10:00:58;;;;;;;18.30;4.80;;;;;;;14.26;100.00;101384.81;5076348;28;20047;-61
2024/03/17 10:03:51;;;;;;;16.88;6.07;;;;;;;14.25;100.00;101390.66;5068812;28;20047;-60
2024/03/17 10:06:19;;;;;;;14.52;4.93;;;;;;;14.30;100.00;101388.59;5077373;28;20048;-61
2024/03/17 10:08:52;;;;;;;12.57;4.65;;;;;;;14.25;100.00;101393.41;5073657;28;20461;-59
2024/03/17 10:11:23;;;;;;;13.23;4.63;;;;;;;14.43;100.00;101397.91;5069677;28;20044;-64
2024/03/17 10:14:03;;;;;;;13.70;4.93;;;;;;;14.24;100.00;101397.34;5046704;28;20060;-60
2024/03/17 10:16:30;;;;;;;13.13;4.73;;;;;;;14.28;100.00;101390.03;5107237;28;20066;-63
2024/03/17 10:19:14;;;;;;;15.73;4.60;;;;;;;14.27;100.00;101385.63;5092423;28;20313;-59
2024/03/17 10:21:41;;;;;;;12.60;4.60;;;;;;;14.33;100.00;101376.84;5065707;28;20040;-60
2024/03/17 10:24:24;;;;;;;13.85;4.18;;;;;;;14.17;100.00;101369.28;5084127;28;20815;-59
2024/03/17 10:26:55;;;;;;;11.60;4.40;;;;;;;13.98;100.00;101380.59;5082206;28;20075;-60
2024/03/17 10:29:26;;;;;;;15.85;4.93;;;;;;;13.89;100.00;101377.00;5085058;28;20044;-60
2024/03/17 10:31:58;;;;;;;12.05;4.57;;;;;;;13.91;100.00;101373.91;5070153;28;20061;-60
2024/03/17 10:34:26;;;;;;;15.32;4.90;;;;;;;14.04;100.00;101364.66;5064251;28;20060;-64
2024/03/17 10:37:06;;;;;;;13.60;5.20;;;;;;;14.13;100.00;101365.50;5074932;28;20048;-63
2024/03/17 10:39:34;;;;;;;14.18;4.85;;;;;;;13.85;100.00;101372.41;5051793;28;20049;-65
2024/03/17 10:42:02;;;;;;;12.02;4.95;;;;;;;13.95;100.00;101366.59;5069748;28;20040;-65
2024/03/17 10:44:32;;;;;;;11.95;4.43;;;;;;;14.02;100.00;101369.69;5079952;28;20051;-60
2024/03/17 10:47:01;;;;;;;11.88;4.35;;;;;;;14.11;100.00;101359.47;5034071;28;20057;-63
2024/03/17 10:49:31;;;;;;;15.95;4.70;;;;;;;14.11;100.00;101365.84;5075045;28;20040;-58
2024/03/17 10:52:02;;;;;;;13.90;5.00;;;;;;;14.06;100.00;101366.00;5059068;28;20048;-58
2024/03/17 10:54:28;;;;;;;13.50;4.60;;;;;;;14.17;100.00;101366.50;5085504;28;20055;-58
2024/03/17 10:57:00;;;;;;;12.70;4.10;;;;;;;14.19;100.00;101367.00;5083979;28;20051;-59
2024/03/17 10:59:43;;;;;;;11.15;4.03;;;;;;;14.28;100.00;101373.41;5057818;28;20581;-62
2024/03/17 11:02:28;;;;;;;13.40;4.53;;;;;;;14.17;100.00;101364.56;5092416;28;20055;-65
2024/03/17 11:04:57;;;;;;;14.13;4.70;;;;;;;14.23;100.00;101357.72;5087247;28;20142;-63
2024/03/17 11:07:24;;;;;;;12.65;3.90;;;;;;;14.20;100.00;101352.84;5087739;28;20047;-63
2024/03/17 11:09:52;;;;;;;21.25;10.65;;;;;;;14.45;100.00;101345.75;5069977;28;20415;-62
2024/03/17 11:12:38;;;;;;;12.82;4.95;;;;;;;14.40;100.00;101343.13;5083105;28;20055;-62
2024/03/17 11:15:19;;;;;;;15.40;4.45;;;;;;;14.47;100.00;101344.25;5051538;28;20056;-63
2024/03/17 11:17:46;;;;;;;14.85;4.50;;;;;;;14.49;100.00;101346.72;5082683;28;20067;-62